Aviation Digital Data Service (ADDS)

Output produced by METARs form (0203 UTC 31 March 2015)
found at http://aviationweather.gov/adds/metars/
 
KARA 310153Z 20005KT 10SM CLR 19/16 A3016 RMK AO2 SLP211 T01940156